Aérodrome :
LOGIN :

S'inscrire | Disclaimer

   EN    FR    IT 

 










Légende :    VFR   VFR Marginal   IFR   IFR Intensif   IFR Très Intensif
Visi : 
Plafond : 
>= 8 km
>= 3000ft
5 à 8 km
1000 à 3000 ft
1500m à 5 km
500 à 1000 ft
800 à 1500m
200 à 500 ft
< 800m
< 200 ft
Symboles :   Orages  Brouillard  Fortes neiges  Fortes précipitations  Vent > 20 kt
SIGMETs :   Divers  Orages  Givrage  Turbulence  Onde Orograph.  Cendres Volcan.






- Altitude de l'aérodrome : 1234 ft
- Code IATA : LUX


ELLX - Luxembourg Findel

DERNIER METAR :
  • 272020Z AUTO 30014KT 9999 -RA FEW009/// SCT011/// BKN014/// 01/M00 Q1006 TEMPO 5000 -SHSN BKN010

METARs EXPIRÉS :
  • 271950Z 30017KT 280V340 9999 FEW014 BKN016 00/M00 Q1004 TEMPO 4000 SHSN BKN008
  • 271920Z 30015KT 270V330 9999 BKN016 00/M00 Q1003 NOSIG
  • 271850Z 30016KT 9999 BKN015 00/M00 Q1001 NOSIG
  • 271820Z 30018KT 9999 BKN013 00/M00 Q1000 NOSIG
  • 271750Z AUTO 31017G30KT 280V340 9999 SCT010/// BKN012/// OVC016/// 00/00 Q0998 NOSIG

TAF TAF ELLX
Valide du 27 à 18h jusqu'au 29 à 00h UTC


271700Z 2718/2824 29015G30KT 4000 -SN SCT004 BKN008
BECMG 2718/2721 9999 NSW BKN015
TEMPO 2802/2809 3000 BR BKN003
BECMG 2804/2807 20008KT
TEMPO 2816/2818 2500 -RASN BKN008
TEMPO 2818/2824 20015G25KT 4500 RA BKN010
ATIS : +352 4798 27300
Météo : +352 4798 27010 / 27050



MET'MAP, la Météo Aéronautique d'un coup d'oeil ! - Copyright ORBIFLY Décembre 2007 - Disclaimer

ORBIFLY MET'MAP TEAM :

Programmation & Développement : Alexandra Zaïnal
Sur une idée originale de : Baudouin d'Aumeries
Assistance à la programmation : Marc-Olivier Méhu
Soutien technique & logistique : Manuel Goepfert

Contact : metmap@orbifly.com




SOURCES & CREDITS :

   NOAA